createdAt,value
2022-11-10T00:00:24.595Z,100851.09
2022-11-10T00:03:01.765Z,100846.31
2022-11-10T00:05:37.490Z,100846.31
2022-11-10T00:08:13.322Z,100855.66
2022-11-10T00:11:01.835Z,100849.94
2022-11-10T00:13:57.014Z,100857.84
2022-11-10T00:16:48.340Z,100859.03
2022-11-10T00:19:22.082Z,100877.88
2022-11-10T00:21:56.001Z,100876.25
2022-11-10T00:24:30.247Z,100880.34
2022-11-10T00:27:05.487Z,100880.47
2022-11-10T00:29:39.038Z,100880.94
2022-11-10T00:32:12.939Z,100885.88
2022-11-10T00:34:46.548Z,100887.69
2022-11-10T00:37:20.461Z,100886.88
2022-11-10T00:39:53.904Z,100889.09
2022-11-10T00:42:28.945Z,100896.03
2022-11-10T00:45:03.171Z,100894.88
2022-11-10T00:47:36.819Z,100897.47
2022-11-10T00:50:11.037Z,100898.13
2022-11-10T00:52:44.730Z,100899.28
2022-11-10T00:55:18.221Z,100905.38
2022-11-10T00:57:53.271Z,100900.91
2022-11-10T01:00:26.757Z,100903.97
2022-11-10T01:03:02.520Z,100911.59
2022-11-10T01:05:38.213Z,100915.28
2022-11-10T01:08:12.636Z,100926.28
2022-11-10T01:10:46.106Z,100924.81
2022-11-10T01:13:21.516Z,100922.81
2022-11-10T01:15:55.173Z,100924.34
2022-11-10T01:18:28.856Z,100929.75
2022-11-10T01:21:02.531Z,100935.78
2022-11-10T01:23:36.571Z,100944.72
2022-11-10T01:26:10.697Z,100940.53
2022-11-10T01:28:45.903Z,100947.88
2022-11-10T01:31:22.751Z,100950.19
2022-11-10T01:33:56.442Z,100960.91
2022-11-10T01:36:29.915Z,100961.97
2022-11-10T01:39:03.701Z,100964.75
2022-11-10T01:41:37.330Z,100959.75
2022-11-10T01:44:18.143Z,100966.69
2022-11-10T01:46:51.687Z,100962.00
2022-11-10T01:49:27.612Z,100975.81
2022-11-10T01:52:05.478Z,100974.66
2022-11-10T01:54:42.191Z,100972.44
2022-11-10T01:57:17.339Z,100973.34
2022-11-10T01:59:52.590Z,100981.56
2022-11-10T02:02:30.250Z,100988.88
2022-11-10T02:05:05.680Z,100986.09
2022-11-10T02:07:40.082Z,100986.97
2022-11-10T02:10:16.151Z,100991.19
2022-11-10T02:12:50.562Z,100999.72
2022-11-10T02:15:26.107Z,100998.28
2022-11-10T02:17:59.554Z,100994.31
2022-11-10T02:20:33.422Z,101006.63
2022-11-10T02:23:35.891Z,101001.03
2022-11-10T02:26:09.841Z,101013.06
2022-11-10T02:28:43.449Z,101013.97
2022-11-10T02:31:17.222Z,101013.16
2022-11-10T02:33:50.721Z,101021.25
2022-11-10T02:36:24.584Z,101017.75
2022-11-10T02:38:59.532Z,101022.69
2022-11-10T02:41:33.476Z,101022.78
2022-11-10T02:44:07.981Z,101025.56
2022-11-10T02:46:41.892Z,101030.19
2022-11-10T02:49:15.342Z,101032.56
2022-11-10T02:51:49.042Z,101027.38
2022-11-10T02:54:23.978Z,101036.31
2022-11-10T02:56:57.719Z,101036.16
2022-11-10T02:59:31.187Z,101036.16
2022-11-10T03:02:04.939Z,101032.28
2022-11-10T03:04:38.599Z,101039.91
2022-11-10T03:07:12.638Z,101039.00
2022-11-10T03:09:47.804Z,101035.31
2022-11-10T03:12:21.643Z,101049.13
2022-11-10T03:14:55.191Z,101049.72
2022-11-10T03:17:29.273Z,101046.31
2022-11-10T03:20:04.543Z,101051.53
2022-11-10T03:22:38.347Z,101060.00
2022-11-10T03:25:14.135Z,101074.84
2022-11-10T03:27:47.850Z,101072.13
2022-11-10T03:30:21.361Z,101084.09
2022-11-10T03:32:55.109Z,101088.63
2022-11-10T03:35:28.735Z,101088.25
2022-11-10T03:38:02.733Z,101082.66
2022-11-10T03:40:56.987Z,101097.66
2022-11-10T03:43:31.303Z,101087.72
2022-11-10T03:46:04.831Z,101087.97
2022-11-10T03:48:38.727Z,101087.06
2022-11-10T03:51:12.371Z,101086.31
2022-11-10T03:53:46.163Z,101085.00
2022-11-10T03:56:20.949Z,101089.91
2022-11-10T03:58:54.751Z,101092.16
2022-11-10T04:01:28.325Z,101092.94
2022-11-10T04:04:02.619Z,101096.78
2022-11-10T04:06:53.715Z,101100.06
2022-11-10T04:09:27.407Z,101100.69
2022-11-10T04:12:23.669Z,101106.00
2022-11-10T04:15:15.748Z,101124.50
2022-11-10T04:17:52.478Z,101120.22
2022-11-10T04:20:26.410Z,101138.94
2022-11-10T04:23:17.252Z,101141.84
2022-11-10T04:26:04.879Z,101144.94
2022-11-10T04:28:40.193Z,101147.56
2022-11-10T04:31:14.514Z,101149.16
2022-11-10T04:33:49.337Z,101147.16
2022-11-10T04:36:25.675Z,101149.47
2022-11-10T04:38:59.179Z,101157.56
2022-11-10T04:41:33.783Z,101160.47
2022-11-10T04:44:08.722Z,101162.66
2022-11-10T04:46:44.086Z,101161.25
2022-11-10T04:49:18.444Z,101172.47
2022-11-10T04:51:52.257Z,101164.66
2022-11-10T04:54:25.835Z,101166.56
2022-11-10T04:56:59.665Z,101169.59
2022-11-10T04:59:34.516Z,101181.81
2022-11-10T05:02:08.414Z,101180.78
2022-11-10T05:04:42.010Z,101186.63
2022-11-10T05:07:15.786Z,101189.13
2022-11-10T05:09:49.288Z,101193.94
2022-11-10T05:12:23.036Z,101204.13
2022-11-10T05:14:57.993Z,101193.94
2022-11-10T05:17:31.843Z,101198.66
2022-11-10T05:20:06.234Z,101206.38
2022-11-10T05:22:41.444Z,101200.72
2022-11-10T05:25:17.691Z,101201.84
2022-11-10T05:27:52.532Z,101217.75
2022-11-10T05:30:27.835Z,101214.06
2022-11-10T05:33:01.500Z,101225.97
2022-11-10T05:35:35.638Z,101219.34
2022-11-10T05:38:09.721Z,101220.81
2022-11-10T05:40:43.661Z,101221.63
2022-11-10T05:43:17.898Z,101224.91
2022-11-10T05:45:52.891Z,101229.44
2022-11-10T05:48:26.669Z,101236.88
2022-11-10T05:51:00.278Z,101240.84
2022-11-10T05:53:34.096Z,101241.09
2022-11-10T05:56:08.491Z,101245.38
2022-11-10T05:58:42.310Z,101244.59
2022-11-10T06:01:17.213Z,101248.75
2022-11-10T06:03:51.135Z,101250.59
2022-11-10T06:06:24.659Z,101253.88
2022-11-10T06:08:59.361Z,101267.28
2022-11-10T06:11:33.427Z,101267.47
2022-11-10T06:14:07.306Z,101284.50
2022-11-10T06:16:42.377Z,101290.31
2022-11-10T06:19:16.171Z,101289.31
2022-11-10T06:21:49.694Z,101295.00
2022-11-10T06:24:23.451Z,101303.91
2022-11-10T06:26:57.109Z,101315.34
2022-11-10T06:29:30.834Z,101318.84
2022-11-10T06:32:05.764Z,101319.97
2022-11-10T06:34:39.610Z,101329.66
2022-11-10T06:37:13.210Z,101333.53
2022-11-10T06:39:47.497Z,101342.94
2022-11-10T06:42:20.998Z,101344.94
2022-11-10T06:44:54.719Z,101351.84
2022-11-10T06:47:29.979Z,101355.47
2022-11-10T06:50:03.935Z,101363.50
2022-11-10T06:52:37.814Z,101359.88
2022-11-10T06:55:11.754Z,101360.72
2022-11-10T06:57:45.370Z,101363.22
2022-11-10T07:00:19.761Z,101370.22
2022-11-10T07:03:01.982Z,101379.75
2022-11-10T07:05:37.255Z,101384.41
2022-11-10T07:08:15.842Z,101387.34
2022-11-10T07:10:53.961Z,101389.16
2022-11-10T07:13:27.476Z,101402.44
2022-11-10T07:16:05.185Z,101394.84
2022-11-10T07:18:40.185Z,101401.94
2022-11-10T07:21:13.900Z,101408.72
2022-11-10T07:23:47.366Z,101407.81
2022-11-10T07:26:21.213Z,101417.47
2022-11-10T07:28:54.669Z,101428.78
2022-11-10T07:31:28.508Z,101431.47
2022-11-10T07:34:03.317Z,101434.13
2022-11-10T07:36:37.038Z,101438.88
2022-11-10T07:39:11.740Z,101439.91
2022-11-10T07:41:49.984Z,101438.09
2022-11-10T07:44:26.142Z,101444.31
2022-11-10T07:46:59.860Z,101449.72
2022-11-10T07:49:34.740Z,101459.81
2022-11-10T07:52:08.579Z,101456.63
2022-11-10T07:54:42.041Z,101462.59
2022-11-10T07:57:15.754Z,101452.53
2022-11-10T07:59:52.700Z,101457.22
2022-11-10T08:02:26.662Z,101467.75
2022-11-10T08:05:01.632Z,101462.16
2022-11-10T08:07:35.695Z,101465.66
2022-11-10T08:10:10.467Z,101468.56
2022-11-10T08:12:44.247Z,101483.06
2022-11-10T08:15:18.003Z,101472.75
2022-11-10T08:17:51.939Z,101476.84
2022-11-10T08:20:27.001Z,101473.25
2022-11-10T08:23:02.386Z,101479.00
2022-11-10T08:25:37.646Z,101484.97
2022-11-10T08:28:13.479Z,101495.56
2022-11-10T08:30:48.604Z,101497.28
2022-11-10T08:33:23.562Z,101498.75
2022-11-10T08:36:01.974Z,101509.16
2022-11-10T08:38:35.816Z,101522.16
2022-11-10T08:41:09.379Z,101512.13
2022-11-10T08:43:43.380Z,101506.13
2022-11-10T08:46:16.980Z,101520.16
2022-11-10T08:48:50.753Z,101522.31
2022-11-10T08:51:25.646Z,101523.81
2022-11-10T08:53:59.341Z,101528.53
2022-11-10T08:56:33.110Z,101523.06
2022-11-10T08:59:06.984Z,101530.03
2022-11-10T09:01:40.464Z,101533.88
2022-11-10T09:04:15.694Z,101517.19
2022-11-10T09:06:50.637Z,101525.63
2022-11-10T09:09:25.715Z,101526.34
2022-11-10T09:11:59.409Z,101529.75
2022-11-10T09:14:33.335Z,101533.50
2022-11-10T09:17:06.919Z,101533.31
2022-11-10T09:19:40.841Z,101536.13
2022-11-10T09:22:15.838Z,101534.53
2022-11-10T09:24:49.546Z,101546.81
2022-11-10T09:27:23.177Z,101544.69
2022-11-10T09:29:57.044Z,101553.63
2022-11-10T09:32:32.151Z,101559.38
2022-11-10T09:35:06.878Z,101555.53
2022-11-10T09:37:42.093Z,101559.88
2022-11-10T09:40:19.982Z,101575.63
2022-11-10T09:42:57.030Z,101572.13
2022-11-10T09:45:38.852Z,101577.06
2022-11-10T09:48:20.688Z,101580.25
2022-11-10T09:50:59.261Z,101582.47
2022-11-10T09:53:38.974Z,101586.91
2022-11-10T09:56:19.257Z,101591.53
2022-11-10T09:58:53.382Z,101583.00
2022-11-10T10:01:34.615Z,101584.78
2022-11-10T10:04:20.449Z,101604.28
2022-11-10T10:07:10.588Z,101604.78
2022-11-10T10:09:55.940Z,101595.22
2022-11-10T10:12:50.736Z,101598.16
2022-11-10T10:15:31.942Z,101590.31
2022-11-10T10:18:21.769Z,101602.97
2022-11-10T10:21:14.661Z,101602.25
2022-11-10T10:24:11.470Z,101604.44
2022-11-10T10:26:51.642Z,101611.38
2022-11-10T10:29:34.569Z,101619.41
2022-11-10T10:32:13.986Z,101602.22
2022-11-10T10:34:48.488Z,101611.09
2022-11-10T10:37:25.229Z,101623.53
2022-11-10T10:39:59.075Z,101619.88
2022-11-10T10:42:35.403Z,101620.69
2022-11-10T10:45:18.284Z,101635.00
2022-11-10T10:47:53.618Z,101627.06
2022-11-10T10:50:32.207Z,101629.03
2022-11-10T10:53:13.461Z,101624.38
2022-11-10T10:55:53.662Z,101626.41
2022-11-10T10:58:30.398Z,101623.16
2022-11-10T11:01:07.212Z,101626.75
2022-11-10T11:03:43.625Z,101630.44
2022-11-10T11:06:23.076Z,101637.78
2022-11-10T11:09:00.369Z,101641.31
2022-11-10T11:11:37.056Z,101650.38
2022-11-10T11:14:21.760Z,101644.72
2022-11-10T11:16:57.218Z,101645.84
2022-11-10T11:19:34.665Z,101651.88
2022-11-10T11:22:37.471Z,101645.03
2022-11-10T11:25:19.351Z,101658.06
2022-11-10T11:28:03.984Z,101659.13
2022-11-10T11:30:50.323Z,101675.47
2022-11-10T11:33:38.215Z,101671.16
2022-11-10T11:36:25.065Z,101672.78
2022-11-10T11:39:07.381Z,101660.94
2022-11-10T11:41:48.272Z,101673.31
2022-11-10T11:44:38.707Z,101678.91
2022-11-10T11:47:27.197Z,101670.97
2022-11-10T11:50:16.348Z,101675.38
2022-11-10T11:52:58.681Z,101673.66
2022-11-10T11:55:57.864Z,101674.66
2022-11-10T11:58:44.460Z,101680.19
2022-11-10T12:01:30.463Z,101676.09
2022-11-10T12:04:41.192Z,101675.94
2022-11-10T12:07:28.681Z,101681.59
2022-11-10T12:10:14.666Z,101684.53
2022-11-10T12:13:06.040Z,101685.50
2022-11-10T12:15:47.920Z,101685.44
2022-11-10T12:18:31.541Z,101687.56
2022-11-10T12:21:21.672Z,101686.56
2022-11-10T12:24:22.670Z,101689.28
2022-11-10T12:26:59.767Z,101694.69
2022-11-10T12:29:36.914Z,101694.69
2022-11-10T12:32:16.121Z,101694.69
2022-11-10T12:34:54.860Z,101692.50
2022-11-10T12:37:34.233Z,101684.69
2022-11-10T12:40:17.047Z,101681.94
2022-11-10T12:42:58.589Z,101683.44
2022-11-10T12:45:37.692Z,101688.50
2022-11-10T12:48:13.089Z,101693.09
2022-11-10T12:50:52.495Z,101694.81
2022-11-10T12:53:29.172Z,101692.59
2022-11-10T12:56:10.793Z,101702.34
2022-11-10T12:58:44.239Z,101708.84
2022-11-10T13:01:21.143Z,101714.59
2022-11-10T13:03:57.516Z,101722.00
2022-11-10T13:06:35.688Z,101720.13
2022-11-10T13:09:24.040Z,101728.44
2022-11-10T13:12:15.849Z,101729.06
2022-11-10T13:14:49.885Z,101733.47
2022-11-10T13:17:55.549Z,101737.91
2022-11-10T13:20:51.497Z,101739.19
2022-11-10T13:23:27.834Z,101731.31
2022-11-10T13:26:03.118Z,101742.69
2022-11-10T13:29:00.739Z,101746.94
2022-11-10T13:31:58.764Z,101750.28
2022-11-10T13:34:34.330Z,101749.13
2022-11-10T13:37:42.430Z,101748.41
2022-11-10T13:40:37.265Z,101755.59
2022-11-10T13:43:24.479Z,101752.00
2022-11-10T13:46:05.398Z,101758.31
2022-11-10T13:49:17.142Z,101756.78
2022-11-10T13:52:06.189Z,101769.25
2022-11-10T13:54:50.114Z,101774.28
2022-11-10T13:57:31.246Z,101780.06
2022-11-10T14:00:25.832Z,101780.16
2022-11-10T14:03:02.104Z,101773.28
2022-11-10T14:06:05.591Z,101763.28
2022-11-10T14:08:43.841Z,101770.47
2022-11-10T14:11:22.315Z,101773.28
2022-11-10T14:14:01.481Z,101768.75
2022-11-10T14:16:40.619Z,101782.53
2022-11-10T14:19:26.831Z,101775.50
2022-11-10T14:22:07.295Z,101774.69
2022-11-10T14:24:55.494Z,101775.59
2022-11-10T14:27:31.949Z,101781.53
2022-11-10T14:30:10.894Z,101771.97
2022-11-10T14:32:44.934Z,101780.16
2022-11-10T14:35:22.582Z,101772.19
2022-11-10T14:37:59.449Z,101763.00
2022-11-10T14:40:33.359Z,101768.50
2022-11-10T14:43:07.011Z,101761.75
2022-11-10T14:45:51.642Z,101769.50
2022-11-10T14:48:27.387Z,101765.09
2022-11-10T14:51:05.824Z,101772.84
2022-11-10T14:53:40.992Z,101777.56
2022-11-10T14:56:18.389Z,101782.28
2022-11-10T14:58:52.836Z,101778.53
2022-11-10T15:01:33.554Z,101801.13
2022-11-10T15:04:12.028Z,101813.81
2022-11-10T15:06:50.196Z,101810.06
2022-11-10T15:09:27.102Z,101822.50
2022-11-10T15:12:19.630Z,101817.47
2022-11-10T15:14:59.344Z,101826.13
2022-11-10T15:17:47.799Z,101826.13
2022-11-10T15:20:37.576Z,101817.81
2022-11-10T15:23:23.436Z,101828.38
2022-11-10T15:25:57.046Z,101831.19
2022-11-10T15:28:35.593Z,101835.22
2022-11-10T15:31:12.916Z,101833.91
2022-11-10T15:33:48.716Z,101825.84
2022-11-10T15:36:32.035Z,101825.13
2022-11-10T15:39:19.926Z,101840.56
2022-11-10T15:41:59.413Z,101837.22
2022-11-10T15:44:33.377Z,101836.22
2022-11-10T15:47:07.578Z,101838.44
2022-11-10T15:49:42.977Z,101835.81
2022-11-10T15:52:20.167Z,101837.13
2022-11-10T15:54:55.283Z,101844.91
2022-11-10T15:57:28.833Z,101847.09
2022-11-10T16:00:02.747Z,101839.50
2022-11-10T16:02:36.917Z,101848.50
2022-11-10T16:05:12.233Z,101848.09
2022-11-10T16:07:45.974Z,101850.41
2022-11-10T16:10:21.123Z,101858.28
2022-11-10T16:12:54.792Z,101862.00
2022-11-10T16:15:29.339Z,101848.28
2022-11-10T16:18:04.519Z,101845.03
2022-11-10T16:20:38.376Z,101845.16
2022-11-10T16:23:12.011Z,101839.78
2022-11-10T16:25:57.722Z,101848.38
2022-11-10T16:28:31.495Z,101848.56
2022-11-10T16:31:09.690Z,101844.25
2022-11-10T16:33:43.430Z,101843.00
2022-11-10T16:36:24.455Z,101851.50
2022-11-10T16:38:59.040Z,101838.31
2022-11-10T16:41:35.299Z,101854.59
2022-11-10T16:44:11.768Z,101852.22
2022-11-10T16:46:48.926Z,101862.16
2022-11-10T16:49:27.958Z,101854.84
2022-11-10T16:52:05.695Z,101865.34
2022-11-10T16:54:39.682Z,101866.88
2022-11-10T16:57:17.276Z,101868.50
2022-11-10T16:59:50.804Z,101867.78
2022-11-10T17:02:28.565Z,101871.50
2022-11-10T17:05:02.140Z,101865.44
2022-11-10T17:07:37.043Z,101860.09
2022-11-10T17:10:16.136Z,101869.88
2022-11-10T17:12:51.398Z,101869.19
2022-11-10T17:15:25.119Z,101859.06
2022-11-10T17:18:04.910Z,101862.59
2022-11-10T17:20:41.594Z,101875.41
2022-11-10T17:23:17.830Z,101875.00
2022-11-10T17:25:54.013Z,101879.34
2022-11-10T17:28:29.051Z,101868.78
2022-11-10T17:31:03.187Z,101875.91
2022-11-10T17:33:37.060Z,101886.72
2022-11-10T17:36:14.966Z,101883.78
2022-11-10T17:38:48.945Z,101887.53
2022-11-10T17:41:22.514Z,101889.19
2022-11-10T17:43:58.021Z,101886.59
2022-11-10T17:46:31.624Z,101887.81
2022-11-10T17:49:05.267Z,101888.91
2022-11-10T17:51:39.033Z,101883.31
2022-11-10T17:54:15.017Z,101887.66
2022-11-10T17:56:48.514Z,101887.66
2022-11-10T17:59:23.584Z,101878.34
2022-11-10T18:01:58.119Z,101886.81
2022-11-10T18:04:31.881Z,101887.81
2022-11-10T18:07:05.537Z,101885.03
2022-11-10T18:09:40.283Z,101880.78
2022-11-10T18:12:13.771Z,101888.63
2022-11-10T18:14:48.883Z,101892.88
2022-11-10T18:17:22.734Z,101898.50
2022-11-10T18:19:56.492Z,101901.41
2022-11-10T18:22:30.048Z,101901.13
2022-11-10T18:25:03.987Z,101895.69
2022-11-10T18:27:37.808Z,101896.50
2022-11-10T18:30:14.334Z,101897.22
2022-11-10T18:32:47.899Z,101898.94
2022-11-10T18:35:21.574Z,101913.94
2022-11-10T18:37:55.078Z,101903.13
2022-11-10T18:40:28.898Z,101898.22
2022-11-10T18:43:07.211Z,101895.50
2022-11-10T18:45:42.933Z,101905.50
2022-11-10T18:48:16.403Z,101907.22
2022-11-10T18:50:50.138Z,101901.97
2022-11-10T18:53:24.875Z,101903.88
2022-11-10T18:55:58.748Z,101908.41
2022-11-10T18:58:32.246Z,101911.31
2022-11-10T19:01:08.254Z,101907.22
2022-11-10T19:03:42.636Z,101914.19
2022-11-10T19:06:17.286Z,101901.75
2022-11-10T19:08:50.728Z,101920.00
2022-11-10T19:11:24.392Z,101912.22
2022-11-10T19:14:00.672Z,101916.47
2022-11-10T19:16:35.666Z,101909.53
2022-11-10T19:19:10.911Z,101912.84
2022-11-10T19:21:44.670Z,101913.84
2022-11-10T19:24:27.509Z,101913.84
2022-11-10T19:27:01.857Z,101907.81
2022-11-10T19:29:35.367Z,101911.03
2022-11-10T19:32:10.410Z,101918.38
2022-11-10T19:34:43.912Z,101917.28
2022-11-10T19:37:17.632Z,101906.63
2022-11-10T19:39:51.115Z,101915.56
2022-11-10T19:42:24.960Z,101909.31
2022-11-10T19:44:58.984Z,101919.53
2022-11-10T19:47:34.241Z,101906.53
2022-11-10T19:50:08.606Z,101903.81
2022-11-10T19:52:42.394Z,101909.31
2022-11-10T19:55:16.087Z,101919.81
2022-11-10T19:57:49.763Z,101922.53
2022-11-10T20:00:23.262Z,101922.34
2022-11-10T20:02:58.450Z,101919.81
2022-11-10T20:05:31.938Z,101931.00
2022-11-10T20:08:12.501Z,101936.25
2022-11-10T20:10:46.543Z,101936.44
2022-11-10T20:13:20.557Z,101935.44
2022-11-10T20:15:54.276Z,101947.53
2022-11-10T20:18:29.632Z,101953.47
2022-11-10T20:21:03.704Z,101959.53
2022-11-10T20:23:38.150Z,101969.19
2022-11-10T20:26:13.659Z,101959.63
2022-11-10T20:28:47.322Z,101972.63
2022-11-10T20:31:24.227Z,101971.91
2022-11-10T20:33:59.334Z,101976.94
2022-11-10T20:36:33.978Z,101973.22
2022-11-10T20:39:07.873Z,101964.56
2022-11-10T20:41:41.309Z,101971.41
2022-11-10T20:44:17.561Z,101983.41
2022-11-10T20:46:55.393Z,101979.19
2022-11-10T20:49:30.818Z,101990.75
2022-11-10T20:52:04.559Z,101993.75
2022-11-10T20:54:38.451Z,101988.22
2022-11-10T20:57:12.060Z,101995.06
2022-11-10T20:59:45.877Z,101997.97
2022-11-10T21:02:19.453Z,101993.44
2022-11-10T21:04:54.525Z,101983.50
2022-11-10T21:07:28.388Z,101977.97
2022-11-10T21:10:02.269Z,101983.00
2022-11-10T21:12:51.619Z,101980.28
2022-11-10T21:15:25.304Z,101988.81
2022-11-10T21:17:58.871Z,101982.88
2022-11-10T21:20:35.005Z,101994.94
2022-11-10T21:23:08.620Z,102001.69
2022-11-10T21:25:42.371Z,101997.88
2022-11-10T21:28:16.043Z,101993.63
2022-11-10T21:30:49.824Z,102003.91
2022-11-10T21:33:23.523Z,102015.88
2022-11-10T21:35:58.751Z,102017.59
2022-11-10T21:38:32.346Z,102020.91
2022-11-10T21:41:06.312Z,102021.81
2022-11-10T21:43:39.912Z,102012.72
2022-11-10T21:46:13.762Z,102016.84
2022-11-10T21:48:47.730Z,102021.16
2022-11-10T21:51:22.912Z,102030.72
2022-11-10T21:53:56.389Z,102044.63
2022-11-10T21:56:30.350Z,102050.06
2022-11-10T21:59:03.776Z,102046.06
2022-11-10T22:01:37.568Z,102040.41
2022-11-10T22:04:11.142Z,102050.06
2022-11-10T22:07:03.840Z,102038.16
2022-11-10T22:09:54.593Z,102051.03
2022-11-10T22:12:45.910Z,102056.47
2022-11-10T22:15:36.720Z,102050.38
2022-11-10T22:18:46.574Z,102038.25
2022-11-10T22:21:20.224Z,102046.47
2022-11-10T22:24:12.802Z,102029.78
2022-11-10T22:26:46.401Z,102034.66
2022-11-10T22:29:20.241Z,102029.22
2022-11-10T22:31:53.727Z,102029.09
2022-11-10T22:34:27.455Z,102034.22
2022-11-10T22:37:01.062Z,102037.31
2022-11-10T22:39:55.845Z,102048.78
2022-11-10T22:42:46.939Z,102046.19
2022-11-10T22:45:20.591Z,102053.47
2022-11-10T22:48:12.547Z,102057.22
2022-11-10T22:50:54.630Z,102048.00
2022-11-10T22:53:28.727Z,102051.78
2022-11-10T22:56:03.796Z,102059.84
2022-11-10T22:58:37.545Z,102067.00
2022-11-10T23:01:12.835Z,102064.41
2022-11-10T23:03:46.546Z,102063.28
2022-11-10T23:06:21.279Z,102058.63
2022-11-10T23:08:55.604Z,102056.13
2022-11-10T23:11:32.445Z,102058.09
2022-11-10T23:14:05.956Z,102061.94
2022-11-10T23:16:39.722Z,102069.56
2022-11-10T23:19:13.392Z,102061.94
2022-11-10T23:21:47.182Z,102072.97
2022-11-10T23:24:24.491Z,102087.06
2022-11-10T23:26:59.668Z,102076.84
2022-11-10T23:29:33.199Z,102086.28
2022-11-10T23:32:06.938Z,102082.50
2022-11-10T23:34:40.565Z,102081.84
2022-11-10T23:37:14.267Z,102078.97
2022-11-10T23:39:47.858Z,102077.06
2022-11-10T23:42:23.009Z,102076.16
2022-11-10T23:44:56.546Z,102076.25
2022-11-10T23:47:30.249Z,102071.03
2022-11-10T23:50:03.798Z,102088.66
2022-11-10T23:52:37.504Z,102085.59
2022-11-10T23:55:11.151Z,102099.13
2022-11-10T23:57:47.891Z,102100.78
